Farmington, NM

8:22 AM MST on January 31, 2015 (GMT -0700)
Four Corners Regional | Change Station
CLOSE
Current Station
Airport
Location: Farmington,
Elevation: 5502 ft
Nearby Weather Stations
Active Advisory: Winter Weather Advisory

Elev 5502 ft 36.74 °N, 108.23 °W | Updated 15 minutes ago

Rain
Rain
33 °F
Feels Like 33 °F
N
0
Wind Variable Wind from North

Today
High -- | Low -- °F
--% Chance of Precip.
Yesterday
High -- | Low -- °F
Precip. -- in
7:15 AM 5:37 PM
Waxing Gibbous, 90% visible
Pressure 29.90 in
Visibility 1.0 miles
Clouds Overcast 1300 ft
Dew Point 32 °F
Humidity 96%
Rainfall 0.15 in
Snow Depth Not available.
UV 0 out of 12
Pollen .20 out of 12
Air Quality Not available.
Flu Activity Not available.
SPECI KFMN 311507Z 00000KT 1SM BR OVC013 01/00 A2990 RMK AO2 TWR VIS 3 RAE1457 P0000 T00060000

More Conditions Fewer Conditions

Pressure 29.90 in
Visibility 1.0 miles
Clouds Overcast 1300 ft
Dew Point 32 °F
Humidity 96%
Rainfall 0.15 in
Snow Depth Not available.
UV 0 out of 12
Pollen .20 out of 12
Air Quality Not available.
Flu Activity Not available.
SPECI KFMN 311507Z 00000KT 1SM BR OVC013 01/00 A2990 RMK AO2 TWR VIS 3 RAE1457 P0000 T00060000

More Conditions Fewer Conditions

Nowcast | as of 7:45 am MST on January 31, 2015

Light rain and snow will fall over western New Mexico through the early morning. Snow levels through 930 am will be near 6500 feet... though may locally vary. Roads near the Continental Divide... including Interstate 40 from the Arizona border to Laguna Pueblo and Highway 550 northwest of Cuba...will see a variety of hazardous conditions including some ice...packed snow and slush. Fog will accompany the precipitation and will drop the visibility below 2 miles at times. Snow amounts over an inch look to be limited to the higher terrain...including the Chuska Mountains and the highest peaks in the Gila. For the latest Road conditions visit N M roads dot com or dial 511.

×

10-Day Weather Forecast

Almanac

Astronomy

Jan. 31, 2015 Rise Set
Actual Time
Civil Twilight
Nautical Twilight
Astronomical Twilight
Moon
Length of Visible Light
Length of Day
Tomorrow will be .
, % of the Moon is Illuminated

Today's Extremes

State Highs State Lows

Community

WunderPhotos

Upload Photos

1,792,091 photos uploaded!

WunderBlogs® & News

Nearby

Air Quality

  Air Quality AQ Index Pollutant
Not available.

Snow Depth

Station Depth Elevation

Earthquake Activity

City Distance Mag. Time & Date
Minimum magnitude displayed is 2.5.

Coastal Water Temperatures

Place Temperature

Nearby Weather Stations